Wetterdaten: Woche 16.05.16 - 22.05.16 (KW20)
Datum Zeit Temp. A. Feuchte A. Luftdruck Regen Wind Richtung Sonnenschein ET UV Solar Taupunkt Windchill Windben Empfang
16.05.2016 00:00 6,7 C 83 % 1019,0 hPa 0,0 l/m 7,6 km/h (2 Bft) SW 0,00 h 0,000 mm 0,0 UV-I 0 W/m 4,0 C 5,6 C 10,8 km/h (2 Bft) 97,98 %
16.05.2016 01:00 6,8 C 81 % 1019,0 hPa 0,0 l/m 8,9 km/h (2 Bft) W-SW 0,00 h 0,025 mm 0,0 UV-I 0 W/m 3,8 C 4,9 C 12,7 km/h (3 Bft) 99,25 %
16.05.2016 02:00 6,6 C 80 % 1018,8 hPa 0,0 l/m 10,0 km/h (2 Bft) SW 0,00 h 0,026 mm 0,0 UV-I 0 W/m 3,4 C 3,9 C 13,9 km/h (3 Bft) 98,22 %
16.05.2016 03:00 6,3 C 78 % 1018,8 hPa 0,0 l/m 11,0 km/h (2 Bft) SW 0,00 h 0,025 mm 0,0 UV-I 0 W/m 2,8 C 2,9 C 15,4 km/h (3 Bft) 99,06 %
16.05.2016 04:00 6,2 C 81 % 1018,9 hPa 0,0 l/m 10,3 km/h (2 Bft) W-SW 0,00 h 0,026 mm 0,0 UV-I 0 W/m 3,2 C 3,4 C 14,4 km/h (3 Bft) 98,26 %
16.05.2016 05:00 6,0 C 83 % 1018,7 hPa 0,0 l/m 9,4 km/h (2 Bft) SW 0,00 h 0,025 mm 0,0 UV-I 10 W/m 3,3 C 3,6 C 14,0 km/h (3 Bft) 98,87 %
16.05.2016 06:00 6,1 C 83 % 1018,9 hPa 0,2 l/m 13,5 km/h (3 Bft) SW 0,00 h 0,025 mm 0,0 UV-I 25 W/m 3,5 C 1,3 C 19,1 km/h (3 Bft) 98,59 %
16.05.2016 07:00 6,1 C 86 % 1019,0 hPa 0,4 l/m 10,4 km/h (2 Bft) W-SW 0,00 h 0,026 mm 0,0 UV-I 85 W/m 4,0 C 3,2 C 15,0 km/h (3 Bft) 98,82 %
16.05.2016 08:00 6,3 C 86 % 1019,2 hPa 0,0 l/m 14,6 km/h (3 Bft) SW 0,12 h 0,051 mm 0,7 UV-I 162 W/m 4,1 C 1,1 C 21,0 km/h (4 Bft) 98,29 %
16.05.2016 09:00 7,4 C 82 % 1019,2 hPa 0,0 l/m 18,6 km/h (3 Bft) SW 0,55 h 0,076 mm 1,3 UV-I 340 W/m 4,6 C 0,5 C 26,1 km/h (4 Bft) 99,17 %
16.05.2016 10:00 8,9 C 76 % 1018,9 hPa 0,0 l/m 17,0 km/h (3 Bft) W-SW 0,67 h 0,178 mm 2,2 UV-I 473 W/m 4,7 C 3,1 C 24,6 km/h (4 Bft) 98,04 %
16.05.2016 11:00 9,9 C 67 % 1018,8 hPa 0,0 l/m 18,5 km/h (3 Bft) W-SW 0,72 h 0,254 mm 2,5 UV-I 530 W/m 4,1 C 3,8 C 27,3 km/h (4 Bft) 99,33 %
16.05.2016 12:00 9,8 C 71 % 1018,8 hPa 0,0 l/m 12,7 km/h (3 Bft) W-SW 0,47 h 0,304 mm 2,9 UV-I 528 W/m 4,8 C 6,2 C 19,6 km/h (3 Bft) 98,29 %
16.05.2016 13:00 8,9 C 79 % 1018,7 hPa 0,4 l/m 19,5 km/h (3 Bft) SW 0,20 h 0,280 mm 1,7 UV-I 320 W/m 5,4 C 2,1 C 28,6 km/h (4 Bft) 98,84 %
16.05.2016 14:00 7,8 C 84 % 1018,6 hPa 0,8 l/m 12,2 km/h (2 Bft) W-SW 0,27 h 0,178 mm 1,8 UV-I 321 W/m 5,3 C 4,1 C 18,4 km/h (3 Bft) 98,23 %
16.05.2016 15:00 8,4 C 87 % 1018,0 hPa 0,2 l/m 6,8 km/h (2 Bft) W-SW 0,33 h 0,152 mm 1,7 UV-I 377 W/m 6,4 C 7,4 C 10,4 km/h (2 Bft) 99,10 %
16.05.2016 16:00 9,5 C 79 % 1017,4 hPa 0,0 l/m 13,9 km/h (3 Bft) W-SW 0,33 h 0,178 mm 1,1 UV-I 310 W/m 6,0 C 5,2 C 19,9 km/h (4 Bft) 97,82 %
16.05.2016 17:00 9,6 C 75 % 1017,3 hPa 0,0 l/m 11,1 km/h (2 Bft) W-SW 0,10 h 0,178 mm 0,6 UV-I 177 W/m 5,4 C 6,5 C 16,2 km/h (3 Bft) 99,42 %
16.05.2016 18:00 8,5 C 83 % 1017,3 hPa 0,6 l/m 3,8 km/h (1 Bft) W-NW 0,22 h 0,101 mm 0,6 UV-I 115 W/m 5,7 C 8,0 C 6,9 km/h (2 Bft) 98,04 %
16.05.2016 19:00 7,0 C 91 % 1017,7 hPa 0,0 l/m 6,8 km/h (2 Bft) W-SW 0,00 h 0,051 mm 0,0 UV-I 32 W/m 5,5 C 6,2 C 10,0 km/h (2 Bft) 99,46 %
16.05.2016 20:00 6,7 C 91 % 1017,8 hPa 0,2 l/m 10,2 km/h (2 Bft) S 0,00 h 0,025 mm 0,0 UV-I 8 W/m 5,4 C 3,9 C 15,5 km/h (3 Bft) 97,92 %
16.05.2016 21:00 6,4 C 90 % 1018,3 hPa 0,0 l/m 11,4 km/h (2 Bft) SW 0,00 h 0,000 mm 0,0 UV-I 0 W/m 5,0 C 2,9 C 17,2 km/h (3 Bft) 99,14 %
16.05.2016 22:00 6,3 C 91 % 1018,8 hPa 0,0 l/m 11,9 km/h (2 Bft) SW 0,00 h 0,000 mm 0,0 UV-I 0 W/m 4,9 C 2,5 C 17,2 km/h (3 Bft) 98,07 %
16.05.2016 23:00 6,1 C 91 % 1019,0 hPa 0,0 l/m 15,2 km/h (3 Bft) SW 0,00 h 0,000 mm 0,0 UV-I 0 W/m 4,7 C 0,4 C 21,1 km/h (4 Bft) 99,00 %
17.05.2016 00:00 6,2 C 90 % 1019,3 hPa 0,0 l/m 15,8 km/h (3 Bft) SW 0,00 h 0,000 mm 0,0 UV-I 0 W/m 4,6 C 0,2 C 22,1 km/h (4 Bft) 97,84 %
17.05.2016 01:00 6,1 C 90 % 1019,3 hPa 0,0 l/m 13,2 km/h (3 Bft) SW 0,00 h 0,025 mm 0,0 UV-I 0 W/m 4,5 C 1,4 C 19,0 km/h (3 Bft) 99,62 %
17.05.2016 02:00 6,0 C 90 % 1019,2 hPa 0,0 l/m 10,3 km/h (2 Bft) SW 0,00 h 0,026 mm 0,0 UV-I 0 W/m 4,5 C 3,0 C 15,0 km/h (3 Bft) 97,76 %
17.05.2016 03:00 5,7 C 92 % 1019,0 hPa 0,0 l/m 12,0 km/h (2 Bft) SW 0,00 h 0,000 mm 0,0 UV-I 0 W/m 4,5 C 1,7 C 17,0 km/h (3 Bft) 99,24 %
17.05.2016 04:00 5,4 C 92 % 1018,7 hPa 0,0 l/m 11,1 km/h (2 Bft) SW 0,00 h 0,000 mm 0,0 UV-I 0 W/m 4,2 C 1,8 C 15,8 km/h (3 Bft) 98,03 %
17.05.2016 05:00 5,6 C 92 % 1018,6 hPa 0,0 l/m 10,8 km/h (2 Bft) SW 0,00 h 0,000 mm 0,0 UV-I 14 W/m 4,4 C 2,2 C 14,7 km/h (3 Bft) 99,60 %
17.05.2016 06:00 5,8 C 91 % 1018,8 hPa 0,0 l/m 9,1 km/h (2 Bft) W-SW 0,00 h 0,000 mm 0,0 UV-I 49 W/m 4,5 C 3,6 C 13,0 km/h (3 Bft) 98,29 %
17.05.2016 07:00 6,8 C 89 % 1019,1 hPa 0,0 l/m 7,4 km/h (2 Bft) SW 0,47 h 0,025 mm 0,5 UV-I 178 W/m 5,1 C 5,7 C 11,0 km/h (2 Bft) 98,99 %
17.05.2016 08:00 8,2 C 84 % 1019,2 hPa 0,0 l/m 6,8 km/h (2 Bft) W-SW 0,77 h 0,076 mm 0,9 UV-I 318 W/m 5,6 C 7,4 C 10,1 km/h (2 Bft) 98,32 %
17.05.2016 09:00 9,2 C 79 % 1019,2 hPa 0,0 l/m 5,4 km/h (1 Bft) SW 0,57 h 0,153 mm 1,4 UV-I 349 W/m 5,7 C 8,8 C 8,4 km/h (2 Bft) 99,44 %
17.05.2016 10:00 10,2 C 72 % 1019,1 hPa 0,0 l/m 6,5 km/h (2 Bft) W-SW 0,28 h 0,203 mm 1,5 UV-I 378 W/m 5,3 C 9,4 C 11,2 km/h (2 Bft) 98,22 %
17.05.2016 11:00 10,6 C 70 % 1018,8 hPa 0,0 l/m 6,7 km/h (2 Bft) W-SW 0,38 h 0,178 mm 2,4 UV-I 449 W/m 5,3 C 9,6 C 11,4 km/h (2 Bft) 98,86 %
17.05.2016 12:00 11,5 C 66 % 1018,5 hPa 0,2 l/m 13,0 km/h (3 Bft) SW 0,27 h 0,254 mm 2,8 UV-I 526 W/m 5,5 C 8,0 C 19,9 km/h (4 Bft) 97,56 %
17.05.2016 13:00 11,2 C 70 % 1018,4 hPa 0,0 l/m 16,7 km/h (3 Bft) SW 0,15 h 0,305 mm 2,1 UV-I 379 W/m 5,9 C 6,0 C 25,2 km/h (4 Bft) 99,32 %
17.05.2016 14:00 11,9 C 66 % 1018,2 hPa 0,0 l/m 16,2 km/h (3 Bft) SW 0,62 h 0,228 mm 3,0 UV-I 590 W/m 5,7 C 7,1 C 23,8 km/h (4 Bft) 97,64 %
17.05.2016 15:00 12,3 C 64 % 1017,7 hPa 0,0 l/m 14,0 km/h (3 Bft) SW 0,28 h 0,356 mm 2,0 UV-I 425 W/m 5,6 C 8,4 C 20,3 km/h (4 Bft) 99,28 %
17.05.2016 16:00 12,5 C 63 % 1017,3 hPa 0,0 l/m 14,0 km/h (3 Bft) S-SW 0,12 h 0,279 mm 1,1 UV-I 266 W/m 5,6 C 8,6 C 20,2 km/h (4 Bft) 98,55 %
17.05.2016 17:00 11,5 C 70 % 1017,2 hPa 0,0 l/m 13,0 km/h (3 Bft) SW 0,00 h 0,178 mm 0,6 UV-I 127 W/m 6,2 C 7,9 C 18,7 km/h (3 Bft) 98,96 %
17.05.2016 18:00 11,4 C 74 % 1017,1 hPa 0,0 l/m 9,8 km/h (2 Bft) W-SW 0,00 h 0,102 mm 0,0 UV-I 108 W/m 6,9 C 9,4 C 14,2 km/h (3 Bft) 98,38 %
17.05.2016 19:00 11,2 C 74 % 1017,1 hPa 0,0 l/m 8,4 km/h (2 Bft) SW 0,20 h 0,076 mm 0,0 UV-I 72 W/m 6,7 C 9,8 C 12,4 km/h (3 Bft) 98,72 %
17.05.2016 20:00 10,5 C 77 % 1017,1 hPa 0,0 l/m 5,0 km/h (1 Bft) S-SW 0,00 h 0,051 mm 0,0 UV-I 10 W/m 6,7 C 10,5 C 7,0 km/h (2 Bft) 98,49 %
17.05.2016 21:00 10,2 C 78 % 1017,3 hPa 0,0 l/m 5,3 km/h (1 Bft) S-SW 0,00 h 0,025 mm 0,0 UV-I 0 W/m 6,5 C 10,1 C 7,6 km/h (2 Bft) 98,98 %
17.05.2016 22:00 9,8 C 80 % 1017,4 hPa 0,0 l/m 5,4 km/h (1 Bft) S-SW 0,00 h 0,025 mm 0,0 UV-I 0 W/m 6,4 C 9,7 C 7,6 km/h (2 Bft) 98,38 %
17.05.2016 23:00 9,4 C 81 % 1017,5 hPa 0,0 l/m 5,7 km/h (1 Bft) SW 0,00 h 0,026 mm 0,0 UV-I 0 W/m 6,3 C 9,2 C 7,9 km/h (2 Bft) 99,00 %
18.05.2016 00:00 9,1 C 83 % 1017,3 hPa 0,0 l/m 4,0 km/h (1 Bft) SW 0,00 h 0,000 mm 0,0 UV-I 0 W/m 6,4 C 9,1 C 5,8 km/h (2 Bft) 98,20 %
18.05.2016 01:00 8,7 C 86 % 1017,0 hPa 0,0 l/m 4,2 km/h (1 Bft) S-SW 0,00 h 0,000 mm 0,0 UV-I 0 W/m 6,5 C 8,7 C 5,8 km/h (2 Bft) 99,20 %
18.05.2016 02:00 8,5 C 87 % 1016,5 hPa 0,0 l/m 4,5 km/h (1 Bft) S-SW 0,00 h 0,000 mm 0,0 UV-I 0 W/m 6,5 C 8,5 C 6,1 km/h (2 Bft) 98,12 %
18.05.2016 03:00 8,1 C 89 % 1016,1 hPa 0,0 l/m 4,5 km/h (1 Bft) S-SW 0,00 h 0,000 mm 0,0 UV-I 0 W/m 6,4 C 8,1 C 5,9 km/h (2 Bft) 99,31 %
18.05.2016 04:00 7,9 C 90 % 1015,7 hPa 0,0 l/m 3,6 km/h (1 Bft) S-SW 0,00 h 0,000 mm 0,0 UV-I 0 W/m 6,3 C 7,9 C 5,1 km/h (1 Bft) 98,17 %
18.05.2016 05:00 7,9 C 90 % 1015,5 hPa 0,0 l/m 4,2 km/h (1 Bft) S-SW 0,00 h 0,000 mm 0,0 UV-I 9 W/m 6,4 C 7,9 C 5,5 km/h (1 Bft) 99,16 %
18.05.2016 06:00 8,3 C 90 % 1015,6 hPa 0,0 l/m 3,2 km/h (1 Bft) S-SW 0,00 h 0,000 mm 0,0 UV-I 54 W/m 6,7 C 8,3 C 4,7 km/h (1 Bft) 98,19 %
18.05.2016 07:00 9,4 C 87 % 1015,7 hPa 0,0 l/m 2,9 km/h (1 Bft) S-SW 0,00 h 0,025 mm 0,5 UV-I 129 W/m 7,3 C 9,4 C 4,5 km/h (1 Bft) 99,34 %
18.05.2016 08:00 10,6 C 81 % 1015,7 hPa 0,0 l/m 3,3 km/h (1 Bft) SW 0,27 h 0,077 mm 0,7 UV-I 232 W/m 7,6 C 10,6 C 5,0 km/h (1 Bft) 98,63 %
18.05.2016 09:00 12,2 C 74 % 1015,4 hPa 0,0 l/m 2,5 km/h (1 Bft) S-SW 0,88 h 0,127 mm 2,0 UV-I 509 W/m 7,6 C 12,2 C 4,5 km/h (1 Bft) 99,22 %
18.05.2016 10:00 13,9 C 59 % 1015,1 hPa 0,0 l/m 3,5 km/h (1 Bft) S-SW 1,00 h 0,254 mm 3,2 UV-I 692 W/m 6,0 C 13,9 C 6,3 km/h (2 Bft) 98,50 %
18.05.2016 11:00 14,9 C 54 % 1014,7 hPa 0,0 l/m 4,4 km/h (1 Bft) S-SO 1,00 h 0,355 mm 4,2 UV-I 801 W/m 5,7 C 14,7 C 7,3 km/h (2 Bft) 99,40 %
18.05.2016 12:00 15,9 C 50 % 1014,1 hPa 0,0 l/m 5,8 km/h (2 Bft) S-SW 0,87 h 0,432 mm 4,4 UV-I 827 W/m 5,4 C 15,5 C 9,5 km/h (2 Bft) 98,11 %
18.05.2016 13:00 16,1 C 49 % 1013,4 hPa 0,0 l/m 5,1 km/h (1 Bft) W-SW 0,58 h 0,432 mm 3,8 UV-I 668 W/m 5,4 C 15,9 C 8,5 km/h (2 Bft) 98,82 %
18.05.2016 14:00 17,1 C 53 % 1012,6 hPa 0,0 l/m 4,6 km/h (1 Bft) N-NO 0,87 h 0,381 mm 4,0 UV-I 784 W/m 7,4 C 17,0 C 7,9 km/h (2 Bft) 98,86 %
18.05.2016 15:00 17,7 C 52 % 1011,9 hPa 0,0 l/m 5,8 km/h (2 Bft) NO 0,97 h 0,432 mm 3,3 UV-I 727 W/m 7,7 C 17,4 C 9,2 km/h (2 Bft) 98,74 %
18.05.2016 16:00 17,7 C 49 % 1011,1 hPa 0,0 l/m 3,5 km/h (1 Bft) NW 0,88 h 0,431 mm 2,1 UV-I 553 W/m 6,8 C 17,7 C 5,7 km/h (1 Bft) 99,10 %
18.05.2016 17:00 17,8 C 50 % 1010,4 hPa 0,0 l/m 3,7 km/h (1 Bft) N-NO 0,98 h 0,331 mm 1,2 UV-I 430 W/m 7,2 C 17,8 C 6,2 km/h (2 Bft) 98,69 %
18.05.2016 18:00 17,3 C 53 % 1009,9 hPa 0,0 l/m 2,8 km/h (1 Bft) N-NO 0,97 h 0,254 mm 0,6 UV-I 233 W/m 7,7 C 17,3 C 4,6 km/h (1 Bft) 98,12 %
18.05.2016 19:00 16,4 C 58 % 1009,6 hPa 0,0 l/m 4,2 km/h (1 Bft) NO 0,23 h 0,152 mm 0,0 UV-I 70 W/m 8,0 C 16,3 C 5,9 km/h (2 Bft) 99,12 %
18.05.2016 20:00 14,4 C 63 % 1009,4 hPa 0,0 l/m 2,7 km/h (1 Bft) O-NO 0,00 h 0,051 mm 0,0 UV-I 13 W/m 7,5 C 14,4 C 3,9 km/h (1 Bft) 98,41 %
18.05.2016 21:00 12,2 C 74 % 1009,3 hPa 0,0 l/m 2,3 km/h (1 Bft) O-NO 0,00 h 0,025 mm 0,0 UV-I 0 W/m 7,6 C 12,2 C 3,4 km/h (1 Bft) 98,93 %
18.05.2016 22:00 11,2 C 78 % 1009,2 hPa 0,0 l/m 3,0 km/h (1 Bft) SO 0,00 h 0,000 mm 0,0 UV-I 0 W/m 7,4 C 11,2 C 4,8 km/h (1 Bft) 97,91 %
18.05.2016 23:00 10,3 C 82 % 1008,9 hPa 0,0 l/m 1,1 km/h (1 Bft) SO 0,00 h 0,000 mm 0,0 UV-I 0 W/m 7,4 C 10,3 C 2,0 km/h (1 Bft) 99,44 %
19.05.2016 00:00 9,8 C 85 % 1008,5 hPa 0,0 l/m 1,8 km/h (1 Bft) O-NO 0,00 h 0,000 mm 0,0 UV-I 0 W/m 7,3 C 9,8 C 2,7 km/h (1 Bft) 97,43 %
19.05.2016 01:00 9,1 C 88 % 1008,0 hPa 0,0 l/m 0,9 km/h (0 Bft) NO 0,00 h 0,000 mm 0,0 UV-I 0 W/m 7,2 C 9,1 C 1,7 km/h (1 Bft) 99,13 %
19.05.2016 02:00 8,9 C 88 % 1007,7 hPa 0,0 l/m 1,7 km/h (1 Bft) NO 0,00 h 0,000 mm 0,0 UV-I 0 W/m 7,1 C 8,9 C 2,6 km/h (1 Bft) 98,25 %
19.05.2016 03:00 8,1 C 90 % 1007,3 hPa 0,0 l/m 1,0 km/h (0 Bft) O 0,00 h 0,000 mm 0,0 UV-I 0 W/m 6,4 C 8,1 C 1,7 km/h (1 Bft) 99,06 %
19.05.2016 04:00 7,4 C 91 % 1006,9 hPa 0,0 l/m 2,3 km/h (1 Bft) O-NO 0,00 h 0,000 mm 0,0 UV-I 0 W/m 6,0 C 7,4 C 3,3 km/h (1 Bft) 98,68 %
19.05.2016 05:00 7,2 C 91 % 1006,8 hPa 0,0 l/m 1,5 km/h (1 Bft) O-NO 0,33 h 0,000 mm 0,0 UV-I 23 W/m 5,9 C 7,2 C 2,3 km/h (1 Bft) 98,70 %
19.05.2016 06:00 8,5 C 89 % 1007,0 hPa 0,0 l/m 2,5 km/h (1 Bft) O-NO 0,52 h 0,000 mm 0,0 UV-I 110 W/m 6,8 C 8,5 C 4,0 km/h (1 Bft) 99,36 %
19.05.2016 07:00 10,1 C 84 % 1007,4 hPa 0,0 l/m 3,0 km/h (1 Bft) O-NO 0,87 h 0,051 mm 0,6 UV-I 214 W/m 7,5 C 10,1 C 4,7 km/h (1 Bft) 98,31 %
19.05.2016 08:00 11,6 C 80 % 1007,9 hPa 0,0 l/m 3,4 km/h (1 Bft) W-SW 0,87 h 0,101 mm 1,0 UV-I 345 W/m 8,4 C 11,6 C 5,4 km/h (1 Bft) 99,54 %
19.05.2016 09:00 13,0 C 77 % 1008,1 hPa 0,0 l/m 3,7 km/h (1 Bft) S-SW 1,00 h 0,178 mm 1,8 UV-I 440 W/m 9,0 C 12,9 C 5,9 km/h (2 Bft) 98,08 %
19.05.2016 10:00 14,6 C 72 % 1008,2 hPa 0,0 l/m 3,3 km/h (1 Bft) W 0,82 h 0,229 mm 2,5 UV-I 475 W/m 9,6 C 14,5 C 5,8 km/h (2 Bft) 99,63 %
19.05.2016 11:00 16,1 C 69 % 1008,3 hPa 0,0 l/m 3,9 km/h (1 Bft) W-SW 0,92 h 0,254 mm 2,7 UV-I 491 W/m 10,4 C 15,9 C 6,9 km/h (2 Bft) 97,99 %
19.05.2016 12:00 17,1 C 67 % 1008,2 hPa 0,0 l/m 4,3 km/h (1 Bft) W-SW 0,77 h 0,279 mm 2,9 UV-I 527 W/m 10,8 C 16,9 C 7,2 km/h (2 Bft) 99,47 %
19.05.2016 13:00 17,2 C 66 % 1008,2 hPa 0,0 l/m 5,5 km/h (1 Bft) W 0,43 h 0,305 mm 2,6 UV-I 468 W/m 10,8 C 16,9 C 9,1 km/h (2 Bft) 97,95 %
19.05.2016 14:00 16,7 C 68 % 1008,6 hPa 0,0 l/m 6,4 km/h (2 Bft) W-SW 0,00 h 0,279 mm 1,5 UV-I 277 W/m 10,6 C 16,2 C 10,0 km/h (2 Bft) 99,05 %
19.05.2016 15:00 16,9 C 65 % 1008,8 hPa 0,0 l/m 4,6 km/h (1 Bft) W 0,00 h 0,178 mm 1,3 UV-I 281 W/m 10,3 C 16,8 C 7,4 km/h (2 Bft) 98,09 %
19.05.2016 16:00 13,4 C 80 % 1009,9 hPa 2,0 l/m 15,7 km/h (3 Bft) S-SW 0,00 h 0,178 mm 0,5 UV-I 82 W/m 9,9 C 9,1 C 23,4 km/h (4 Bft) 99,18 %
19.05.2016 17:00 10,2 C 91 % 1011,3 hPa 3,2 l/m 21,3 km/h (4 Bft) W-SW 0,00 h 0,076 mm 0,0 UV-I 39 W/m 8,8 C 3,2 C 30,5 km/h (5 Bft) 98,03 %
19.05.2016 18:00 9,1 C 94 % 1012,4 hPa 4,8 l/m 15,3 km/h (3 Bft) S-SW 0,00 h 0,026 mm 0,0 UV-I 16 W/m 8,1 C 4,0 C 22,3 km/h (4 Bft) 99,60 %
19.05.2016 19:00 9,0 C 94 % 1012,7 hPa 1,6 l/m 16,3 km/h (3 Bft) W-SW 0,00 h 0,025 mm 0,0 UV-I 19 W/m 8,1 C 3,4 C 22,8 km/h (4 Bft) 97,65 %
19.05.2016 20:00 9,1 C 94 % 1014,0 hPa 0,4 l/m 12,4 km/h (3 Bft) W-SW 0,00 h 0,025 mm 0,0 UV-I 9 W/m 8,2 C 5,4 C 17,4 km/h (3 Bft) 99,56 %
19.05.2016 21:00 9,0 C 94 % 1015,1 hPa 0,0 l/m 12,9 km/h (3 Bft) W-SW 0,00 h 0,000 mm 0,0 UV-I 0 W/m 8,0 C 5,0 C 18,1 km/h (3 Bft) 97,78 %
19.05.2016 22:00 8,8 C 93 % 1015,4 hPa 0,0 l/m 16,6 km/h (3 Bft) SW 0,00 h 0,000 mm 0,0 UV-I 0 W/m 7,7 C 3,1 C 23,4 km/h (4 Bft) 99,06 %
19.05.2016 23:00 8,9 C 92 % 1015,9 hPa 0,0 l/m 14,3 km/h (3 Bft) W-SW 0,00 h 0,026 mm 0,0 UV-I 0 W/m 7,6 C 4,2 C 20,6 km/h (4 Bft) 98,16 %
20.05.2016 00:00 9,1 C 92 % 1016,5 hPa 0,0 l/m 14,3 km/h (3 Bft) W-SW 0,00 h 0,000 mm 0,0 UV-I 0 W/m 7,8 C 4,4 C 20,5 km/h (4 Bft) 99,37 %
20.05.2016 01:00 9,3 C 91 % 1016,7 hPa 0,0 l/m 16,8 km/h (3 Bft) SW 0,00 h 0,025 mm 0,0 UV-I 0 W/m 7,8 C 3,6 C 23,3 km/h (4 Bft) 97,50 %
20.05.2016 02:00 9,4 C 90 % 1017,0 hPa 0,0 l/m 16,2 km/h (3 Bft) W-SW 0,00 h 0,026 mm 0,0 UV-I 0 W/m 7,9 C 4,0 C 22,5 km/h (4 Bft) 99,67 %
20.05.2016 03:00 9,4 C 91 % 1017,1 hPa 0,0 l/m 16,4 km/h (3 Bft) SW 0,00 h 0,025 mm 0,0 UV-I 0 W/m 8,0 C 3,9 C 23,0 km/h (4 Bft) 97,86 %
20.05.2016 04:00 9,6 C 91 % 1017,3 hPa 0,0 l/m 16,4 km/h (3 Bft) SW 0,00 h 0,026 mm 0,0 UV-I 0 W/m 8,2 C 4,1 C 23,0 km/h (4 Bft) 99,00 %
20.05.2016 05:00 9,7 C 91 % 1017,8 hPa 0,4 l/m 17,4 km/h (3 Bft) SW 0,00 h 0,025 mm 0,0 UV-I 5 W/m 8,3 C 3,8 C 24,4 km/h (4 Bft) 97,99 %
20.05.2016 06:00 9,6 C 92 % 1018,2 hPa 0,0 l/m 15,9 km/h (3 Bft) SW 0,00 h 0,025 mm 0,0 UV-I 18 W/m 8,4 C 4,3 C 22,6 km/h (4 Bft) 99,16 %
20.05.2016 07:00 9,9 C 92 % 1018,6 hPa 0,2 l/m 17,0 km/h (3 Bft) SW 0,00 h 0,026 mm 0,0 UV-I 43 W/m 8,6 C 4,2 C 23,9 km/h (4 Bft) 97,69 %
20.05.2016 08:00 10,2 C 91 % 1019,0 hPa 0,0 l/m 15,9 km/h (3 Bft) SW 0,00 h 0,025 mm 0,0 UV-I 63 W/m 8,7 C 5,0 C 22,1 km/h (4 Bft) 99,33 %
20.05.2016 09:00 10,6 C 90 % 1019,6 hPa 0,0 l/m 15,5 km/h (3 Bft) SW 0,00 h 0,051 mm 0,6 UV-I 104 W/m 9,0 C 5,7 C 21,5 km/h (4 Bft) 97,89 %
20.05.2016 10:00 11,1 C 88 % 1019,9 hPa 0,0 l/m 16,6 km/h (3 Bft) SW 0,00 h 0,076 mm 0,8 UV-I 140 W/m 9,2 C 6,0 C 23,2 km/h (4 Bft) 98,59 %
20.05.2016 11:00 11,6 C 87 % 1020,1 hPa 0,0 l/m 15,5 km/h (3 Bft) SW 0,00 h 0,076 mm 1,2 UV-I 201 W/m 9,5 C 7,0 C 22,2 km/h (4 Bft) 97,95 %
20.05.2016 12:00 12,2 C 85 % 1020,3 hPa 0,0 l/m 15,2 km/h (3 Bft) SW 0,00 h 0,127 mm 1,2 UV-I 188 W/m 9,7 C 7,8 C 21,6 km/h (4 Bft) 98,86 %
20.05.2016 13:00 12,7 C 83 % 1020,3 hPa 0,0 l/m 18,3 km/h (3 Bft) SW 0,00 h 0,127 mm 1,7 UV-I 284 W/m 9,8 C 7,3 C 26,0 km/h (4 Bft) 98,07 %
20.05.2016 14:00 13,8 C 79 % 1020,3 hPa 0,0 l/m 15,9 km/h (3 Bft) SW 0,12 h 0,178 mm 2,1 UV-I 356 W/m 10,2 C 9,5 C 22,7 km/h (4 Bft) 99,47 %
20.05.2016 15:00 15,3 C 73 % 1019,9 hPa 0,0 l/m 15,7 km/h (3 Bft) W-SW 0,88 h 0,229 mm 2,6 UV-I 536 W/m 10,6 C 11,5 C 22,6 km/h (4 Bft) 98,05 %
20.05.2016 16:00 16,1 C 70 % 1019,9 hPa 0,0 l/m 12,5 km/h (3 Bft) SW 0,83 h 0,330 mm 1,9 UV-I 468 W/m 10,7 C 13,5 C 18,3 km/h (3 Bft) 99,13 %
20.05.2016 17:00 16,6 C 68 % 1019,7 hPa 0,0 l/m 11,0 km/h (2 Bft) SW 0,87 h 0,305 mm 1,2 UV-I 403 W/m 10,6 C 14,6 C 16,0 km/h (3 Bft) 97,91 %
20.05.2016 18:00 16,3 C 67 % 1019,6 hPa 0,0 l/m 10,3 km/h (2 Bft) W-SW 0,70 h 0,254 mm 0,6 UV-I 227 W/m 10,2 C 14,5 C 15,3 km/h (3 Bft) 99,46 %
20.05.2016 19:00 15,4 C 70 % 1019,7 hPa 0,0 l/m 8,4 km/h (2 Bft) SW 0,53 h 0,152 mm 0,0 UV-I 94 W/m 10,1 C 14,3 C 12,2 km/h (2 Bft) 98,07 %
20.05.2016 20:00 14,0 C 75 % 1019,8 hPa 0,0 l/m 4,7 km/h (1 Bft) S 0,05 h 0,076 mm 0,0 UV-I 16 W/m 9,6 C 14,0 C 7,1 km/h (2 Bft) 99,60 %
20.05.2016 21:00 12,5 C 78 % 1019,9 hPa 0,0 l/m 3,1 km/h (1 Bft) S-SO 0,00 h 0,026 mm 0,0 UV-I 0 W/m 8,8 C 12,5 C 5,4 km/h (1 Bft) 97,87 %
20.05.2016 22:00 10,8 C 84 % 1020,2 hPa 0,0 l/m 4,5 km/h (1 Bft) S 0,00 h 0,000 mm 0,0 UV-I 0 W/m 8,3 C 10,8 C 6,4 km/h (2 Bft) 98,98 %
20.05.2016 23:00 10,3 C 86 % 1020,3 hPa 0,0 l/m 6,2 km/h (2 Bft) S 0,00 h 0,000 mm 0,0 UV-I 0 W/m 8,1 C 10,1 C 8,7 km/h (2 Bft) 97,38 %
21.05.2016 00:00 9,2 C 89 % 1020,4 hPa 0,0 l/m 5,0 km/h (1 Bft) S 0,00 h 0,000 mm 0,0 UV-I 0 W/m 7,6 C 9,2 C 6,8 km/h (2 Bft) 99,00 %
21.05.2016 01:00 8,8 C 90 % 1020,2 hPa 0,0 l/m 6,4 km/h (2 Bft) S 0,00 h 0,000 mm 0,0 UV-I 0 W/m 7,2 C 8,6 C 8,4 km/h (2 Bft) 97,80 %
21.05.2016 02:00 8,4 C 90 % 1020,0 hPa 0,0 l/m 3,3 km/h (1 Bft) S-SW 0,00 h 0,000 mm 0,0 UV-I 0 W/m 6,9 C 8,4 C 5,0 km/h (1 Bft) 99,27 %
21.05.2016 03:00 7,3 C 93 % 1020,1 hPa 0,0 l/m 1,4 km/h (1 Bft) S-SW 0,00 h 0,000 mm 0,0 UV-I 0 W/m 6,2 C 7,3 C 2,5 km/h (1 Bft) 97,42 %
21.05.2016 04:00 6,5 C 94 % 1020,3 hPa 0,0 l/m 1,5 km/h (1 Bft) S 0,00 h 0,000 mm 0,0 UV-I 0 W/m 5,6 C 6,5 C 2,7 km/h (1 Bft) 99,34 %
21.05.2016 05:00 6,2 C 95 % 1020,4 hPa 0,0 l/m 1,0 km/h (0 Bft) S 0,02 h 0,000 mm 0,0 UV-I 14 W/m 5,4 C 6,2 C 2,0 km/h (1 Bft) 98,05 %
21.05.2016 06:00 7,0 C 95 % 1020,6 hPa 0,0 l/m 0,5 km/h (0 Bft) S 0,18 h 0,000 mm 0,0 UV-I 68 W/m 6,3 C 7,0 C 0,9 km/h (0 Bft) 99,24 %
21.05.2016 07:00 10,2 C 89 % 1020,6 hPa 0,0 l/m 0,7 km/h (0 Bft) S 0,97 h 0,025 mm 0,7 UV-I 230 W/m 8,5 C 10,2 C 1,7 km/h (1 Bft) 98,36 %
21.05.2016 08:00 12,2 C 82 % 1020,5 hPa 0,0 l/m 6,3 km/h (2 Bft) O-NO 1,00 h 0,102 mm 1,3 UV-I 412 W/m 9,2 C 11,8 C 8,7 km/h (2 Bft) 99,23 %
21.05.2016 09:00 14,3 C 77 % 1020,5 hPa 0,0 l/m 6,2 km/h (2 Bft) O-NO 1,00 h 0,203 mm 2,4 UV-I 542 W/m 10,3 C 13,9 C 9,2 km/h (2 Bft) 97,88 %
21.05.2016 10:00 16,6 C 72 % 1020,2 hPa 0,0 l/m 6,5 km/h (2 Bft) NO 1,00 h 0,305 mm 3,8 UV-I 716 W/m 11,5 C 16,2 C 9,4 km/h (2 Bft) 99,16 %
21.05.2016 11:00 18,4 C 64 % 1019,6 hPa 0,0 l/m 8,3 km/h (2 Bft) O-NO 1,00 h 0,406 mm 4,9 UV-I 804 W/m 11,5 C 17,5 C 12,5 km/h (3 Bft) 97,99 %
21.05.2016 12:00 19,5 C 56 % 1019,0 hPa 0,0 l/m 7,5 km/h (2 Bft) N-NO 1,00 h 0,483 mm 5,5 UV-I 847 W/m 10,4 C 18,8 C 11,8 km/h (2 Bft) 99,66 %
21.05.2016 13:00 20,2 C 51 % 1018,6 hPa 0,0 l/m 6,3 km/h (2 Bft) NO 1,00 h 0,533 mm 5,3 UV-I 819 W/m 9,8 C 19,8 C 10,0 km/h (2 Bft) 98,16 %
21.05.2016 14:00 20,7 C 48 % 1018,1 hPa 0,0 l/m 5,2 km/h (1 Bft) NO 1,00 h 0,508 mm 4,7 UV-I 788 W/m 9,3 C 20,5 C 7,9 km/h (2 Bft) 99,44 %
21.05.2016 15:00 21,2 C 50 % 1017,6 hPa 0,0 l/m 4,9 km/h (1 Bft) NO 0,97 h 0,508 mm 3,5 UV-I 652 W/m 10,4 C 21,1 C 7,4 km/h (2 Bft) 98,04 %
21.05.2016 16:00 21,4 C 50 % 1017,1 hPa 0,0 l/m 3,3 km/h (1 Bft) NO 1,00 h 0,407 mm 2,5 UV-I 590 W/m 10,4 C 21,4 C 5,7 km/h (1 Bft) 99,50 %
21.05.2016 17:00 21,5 C 48 % 1016,6 hPa 0,0 l/m 6,0 km/h (2 Bft) O-NO 0,98 h 0,381 mm 1,4 UV-I 407 W/m 10,1 C 21,4 C 9,1 km/h (2 Bft) 97,84 %
21.05.2016 18:00 21,4 C 48 % 1016,5 hPa 0,0 l/m 5,2 km/h (1 Bft) NO 1,00 h 0,279 mm 0,6 UV-I 276 W/m 10,0 C 21,4 C 7,2 km/h (2 Bft) 99,20 %
21.05.2016 19:00 20,6 C 51 % 1016,2 hPa 0,0 l/m 5,4 km/h (1 Bft) O-NO 0,62 h 0,203 mm 0,0 UV-I 101 W/m 10,1 C 20,6 C 7,7 km/h (2 Bft) 97,89 %
21.05.2016 20:00 18,7 C 57 % 1016,1 hPa 0,0 l/m 3,7 km/h (1 Bft) O-NO 0,02 h 0,102 mm 0,0 UV-I 17 W/m 9,9 C 18,7 C 5,1 km/h (1 Bft) 99,29 %
21.05.2016 21:00 16,8 C 64 % 1016,1 hPa 0,0 l/m 3,0 km/h (1 Bft) O-NO 0,00 h 0,025 mm 0,0 UV-I 0 W/m 9,9 C 16,8 C 4,1 km/h (1 Bft) 97,57 %
21.05.2016 22:00 15,5 C 67 % 1015,9 hPa 0,0 l/m 3,2 km/h (1 Bft) O-NO 0,00 h 0,026 mm 0,0 UV-I 0 W/m 9,4 C 15,5 C 4,6 km/h (1 Bft) 99,36 %
21.05.2016 23:00 13,2 C 80 % 1015,8 hPa 0,0 l/m 0,1 km/h (0 Bft) O 0,00 h 0,025 mm 0,0 UV-I 0 W/m 9,7 C 13,2 C 0,3 km/h (0 Bft) 97,92 %
22.05.2016 00:00 11,7 C 84 % 1015,6 hPa 0,0 l/m 0,6 km/h (0 Bft) O 0,00 h 0,000 mm 0,0 UV-I 0 W/m 9,0 C 11,7 C 1,5 km/h (1 Bft) 98,88 %
22.05.2016 01:00 11,1 C 85 % 1015,2 hPa 0,0 l/m 1,1 km/h (1 Bft) O 0,00 h 0,000 mm 0,0 UV-I 0 W/m 8,6 C 11,1 C 1,7 km/h (1 Bft) 97,89 %
22.05.2016 02:00 10,6 C 87 % 1014,5 hPa 0,0 l/m 1,5 km/h (1 Bft) O 0,00 h 0,000 mm 0,0 UV-I 0 W/m 8,4 C 10,6 C 2,2 km/h (1 Bft) 99,05 %
22.05.2016 03:00 9,8 C 90 % 1014,1 hPa 0,0 l/m 1,6 km/h (1 Bft) O 0,00 h 0,000 mm 0,0 UV-I 0 W/m 8,2 C 9,8 C 2,3 km/h (1 Bft) 98,47 %
22.05.2016 04:00 9,1 C 92 % 1013,8 hPa 0,0 l/m 1,0 km/h (0 Bft) O 0,00 h 0,000 mm 0,0 UV-I 0 W/m 7,8 C 9,1 C 1,7 km/h (1 Bft) 98,00 %
22.05.2016 05:00 8,2 C 93 % 1013,6 hPa 0,0 l/m 1,3 km/h (1 Bft) O 0,00 h 0,000 mm 0,0 UV-I 12 W/m 7,1 C 8,2 C 2,3 km/h (1 Bft) 99,29 %
22.05.2016 06:00 9,5 C 91 % 1013,5 hPa 0,0 l/m 1,9 km/h (1 Bft) O 0,25 h 0,000 mm 0,0 UV-I 63 W/m 8,1 C 9,5 C 3,1 km/h (1 Bft) 97,72 %
22.05.2016 07:00 12,1 C 85 % 1013,2 hPa 0,0 l/m 4,7 km/h (1 Bft) O-NO 1,00 h 0,025 mm 0,7 UV-I 246 W/m 9,7 C 12,0 C 6,7 km/h (2 Bft) 99,65 %
22.05.2016 08:00 14,6 C 79 % 1012,9 hPa 0,0 l/m 7,7 km/h (2 Bft) O-NO 1,00 h 0,127 mm 1,5 UV-I 425 W/m 11,0 C 13,9 C 10,9 km/h (2 Bft) 98,12 %
22.05.2016 09:00 16,9 C 74 % 1012,2 hPa 0,0 l/m 11,4 km/h (2 Bft) NO 1,00 h 0,229 mm 2,7 UV-I 546 W/m 12,2 C 14,8 C 15,5 km/h (3 Bft) 99,30 %
22.05.2016 10:00 19,2 C 70 % 1011,6 hPa 0,0 l/m 8,5 km/h (2 Bft) O-NO 1,00 h 0,330 mm 4,2 UV-I 726 W/m 13,6 C 18,3 C 12,7 km/h (3 Bft) 98,11 %
22.05.2016 11:00 21,5 C 64 % 1010,9 hPa 0,0 l/m 10,6 km/h (2 Bft) NO 1,00 h 0,432 mm 5,5 UV-I 821 W/m 14,4 C 20,1 C 15,3 km/h (3 Bft) 99,22 %
22.05.2016 12:00 23,7 C 60 % 1010,2 hPa 0,0 l/m 10,0 km/h (2 Bft) NO 1,00 h 0,533 mm 6,3 UV-I 877 W/m 15,4 C 22,7 C 15,0 km/h (3 Bft) 98,35 %
22.05.2016 13:00 25,4 C 56 % 1009,4 hPa 0,0 l/m 12,8 km/h (3 Bft) NO 1,00 h 0,585 mm 6,3 UV-I 881 W/m 15,8 C 24,2 C 17,5 km/h (3 Bft) 99,37 %
22.05.2016 14:00 26,4 C 54 % 1008,6 hPa 0,0 l/m 13,2 km/h (3 Bft) NO 1,00 h 0,635 mm 5,6 UV-I 834 W/m 16,4 C 25,3 C 18,2 km/h (3 Bft) 98,81 %
22.05.2016 15:00 27,4 C 51 % 1007,7 hPa 0,0 l/m 14,1 km/h (3 Bft) O-NO 1,00 h 0,635 mm 4,3 UV-I 741 W/m 16,5 C 26,4 C 19,5 km/h (3 Bft) 98,84 %
22.05.2016 16:00 27,7 C 50 % 1006,9 hPa 0,0 l/m 18,6 km/h (3 Bft) NO 1,00 h 0,584 mm 2,8 UV-I 609 W/m 16,3 C 26,2 C 24,8 km/h (4 Bft) 98,03 %
22.05.2016 17:00 27,5 C 48 % 1006,4 hPa 0,0 l/m 20,0 km/h (4 Bft) NO 1,00 h 0,533 mm 1,5 UV-I 445 W/m 15,5 C 25,9 C 26,4 km/h (4 Bft) 98,77 %
22.05.2016 18:00 26,8 C 49 % 1006,0 hPa 0,0 l/m 17,3 km/h (3 Bft) O-NO 1,00 h 0,457 mm 0,7 UV-I 277 W/m 15,1 C 25,3 C 23,5 km/h (4 Bft) 98,58 %
22.05.2016 19:00 25,4 C 52 % 1005,4 hPa 0,0 l/m 16,5 km/h (3 Bft) O-NO 0,57 h 0,331 mm 0,0 UV-I 102 W/m 14,8 C 23,6 C 22,4 km/h (4 Bft) 98,31 %
22.05.2016 20:00 23,3 C 57 % 1005,1 hPa 0,0 l/m 13,6 km/h (3 Bft) O-NO 0,00 h 0,203 mm 0,0 UV-I 12 W/m 14,4 C 21,5 C 18,7 km/h (3 Bft) 98,62 %
22.05.2016 21:00 21,4 C 64 % 1005,2 hPa 0,0 l/m 9,4 km/h (2 Bft) O-NO 0,00 h 0,101 mm 0,0 UV-I 0 W/m 14,2 C 20,4 C 13,1 km/h (3 Bft) 97,95 %
22.05.2016 22:00 20,1 C 67 % 1005,4 hPa 0,0 l/m 8,9 km/h (2 Bft) O-NO 0,00 h 0,051 mm 0,0 UV-I 0 W/m 13,8 C 19,1 C 12,4 km/h (3 Bft) 98,62 %
22.05.2016 23:00 19,2 C 68 % 1005,4 hPa 0,0 l/m 7,6 km/h (2 Bft) O-NO 0,00 h 0,051 mm 0,0 UV-I 0 W/m 13,1 C 18,7 C 10,5 km/h (2 Bft) 98,53 %
Min-Datum _ 17.05.16 21.05.16 22.05.16 - 18.05.16 - - - - - 16.05.16 16.05.16 18.05.16 17.05.16
_ Min-Zeit 04:36 16:39 20:54 - 07:03 - - - - - 03:23 04:14 07:03 11:39
Minimum _ 5,2 C 43 % 1004,9 hPa - 0,0 km/h (0 Bft) - - - - - 2,5 C -3,2 C 0,0 km/h (0 Bft) 75,00 %
Max-Datum _ 22.05.16 21.05.16 21.05.16 19.05.16 16.05.16 - 16.05.16 22.05.16 22.05.16 17.05.16 22.05.16 22.05.16 19.05.16 16.05.16
_ Max-Zeit 16:39 06:05 06:15 18:00 13:52 - 11:30 14:02 12:49 12:06 14:58 15:24 17:37 00:00
Maximum _ 27,8 C 96 % 1020,6 hPa 4,8 l/m 31,8 km/h
SW (5 Bft)
- 0,08 h 0,635 mm 6,6 UV-I 1148 W/m 18,1 C 27,2 C 46,7 km/h
W-SW (6 Bft)
100,00 %
Durchschnitt _ 12,3 C 77 % 1015,4 hPa #15,6 l/m 8,5 km/h (2 Bft) SW #53:38 h #23,317 mm 2,2 UV-I 327 W/m 8,0 C 10,5 C 12,3 km/h (3 Bft) 98,63 %